Ilyas Araz — TCAS9 — position and weather

sailwx.info

Track history (hours):
 
Tides and Currents Weather Stations Pressure Air Temp Water Temp Dewpoint Dewpoint Depression Visibility Wind Speed Wind Dir Waves Ship Positions

Ilyas Araz

Last reported at 2014-Jul-04 18:33 UTC. Time now 2014-Aug-01 09:52 UTC.
Position N 41°16' E 029°28'.
Warning: this ship's position is 27 days out of date.

Length 64 m; draft 5.4 m.

Type: Cargo ship. MMSI: 271002108.

Date/timePositionNaut miles runAvg speedWind from/ knotsBaromVisibWave heightAir tempDewpointWater temp
2014-Jul-04 18:33N 41°16' E 029°28'  
2014-Jun-26 17:09N 41°17' E 029°38'6 9.6
2014-Jun-26 16:33N 41°17' E 029°30'29 6.9
2014-Jun-26 12:19N 40°58' E 029°00'5 6.7
2014-Jun-26 11:31N 40°55' E 029°05'5 4.3
2014-Jun-26 10:23N 40°53' E 029°11'0 0.0
2014-Jun-26 09:29N 40°53' E 029°11'0 0.0
2014-Jun-26 08:11N 40°53' E 029°11'0 0.0
2014-Jun-26 07:29N 40°53' E 029°11'  
Track history (hours):
 
Tides and Currents Weather Stations Pressure Air Temp Water Temp Dewpoint Dewpoint Depression Visibility Wind Speed Wind Dir Waves Ship Positions

Ilyas Araz

Last reported at 2014-Jul-04 18:33 UTC. Time now 2014-Aug-01 09:52 UTC.
Position N 41°16' E 029°28'.
Warning: this ship's position is 27 days out of date.

Length 64 m; draft 5.4 m.

Type: Cargo ship. MMSI: 271002108.

Date/timePositionNaut miles runAvg speedWind from/ knotsBaromVisibWave heightAir tempDewpointWater temp
2014-Jul-04 18:33N 41°16' E 029°28'  
2014-Jun-26 17:09N 41°17' E 029°38'6 9.6
2014-Jun-26 16:33N 41°17' E 029°30'29 6.9
2014-Jun-26 12:19N 40°58' E 029°00'5 6.7
2014-Jun-26 11:31N 40°55' E 029°05'5 4.3
2014-Jun-26 10:23N 40°53' E 029°11'0 0.0
2014-Jun-26 09:29N 40°53' E 029°11'0 0.0
2014-Jun-26 08:11N 40°53' E 029°11'0 0.0
2014-Jun-26 07:29N 40°53' E 029°11'  

Dump ship's entire track history